sensor_id;sensor_type;location;lat;lon;timestamp;pressure;altitude;pressure_sealevel;temperature;humidity
48424;BME280;34232;42.502;26.014;2023-03-18T00:01:41;100661.34;;;6.67;53.74
48424;BME280;34232;42.502;26.014;2023-03-18T00:04:07;100660.72;;;6.63;53.43
48424;BME280;34232;42.502;26.014;2023-03-18T00:06:34;100657.75;;;6.54;54.01
48424;BME280;34232;42.502;26.014;2023-03-18T00:09:00;100660.53;;;6.51;53.70
48424;BME280;34232;42.502;26.014;2023-03-18T00:11:25;100657.25;;;6.63;53.38
48424;BME280;34232;42.502;26.014;2023-03-18T00:13:51;100654.78;;;6.76;53.83
48424;BME280;34232;42.502;26.014;2023-03-18T00:16:16;100649.63;;;6.74;53.33
48424;BME280;34232;42.502;26.014;2023-03-18T00:18:42;100644.19;;;6.63;53.39
48424;BME280;34232;42.502;26.014;2023-03-18T00:21:08;100646.25;;;6.72;53.32
48424;BME280;34232;42.502;26.014;2023-03-18T00:23:33;100648.53;;;6.78;53.71
48424;BME280;34232;42.502;26.014;2023-03-18T00:25:59;100646.47;;;6.83;53.60
48424;BME280;34232;42.502;26.014;2023-03-18T00:28:25;100641.16;;;6.85;52.72
48424;BME280;34232;42.502;26.014;2023-03-18T00:30:52;100635.38;;;6.80;52.57
48424;BME280;34232;42.502;26.014;2023-03-18T00:33:17;100635.72;;;6.74;52.61
48424;BME280;34232;42.502;26.014;2023-03-18T00:35:43;100633.59;;;6.80;52.53
48424;BME280;34232;42.502;26.014;2023-03-18T00:38:12;100628.00;;;6.86;52.76
48424;BME280;34232;42.502;26.014;2023-03-18T00:40:47;100618.09;;;6.91;52.24
48424;BME280;34232;42.502;26.014;2023-03-18T00:43:25;100623.16;;;6.94;52.22
48424;BME280;34232;42.502;26.014;2023-03-18T00:45:53;100620.56;;;6.94;52.07
48424;BME280;34232;42.502;26.014;2023-03-18T00:48:19;100608.94;;;6.98;51.87
48424;BME280;34232;42.502;26.014;2023-03-18T00:50:44;100604.56;;;6.99;52.07
48424;BME280;34232;42.502;26.014;2023-03-18T00:53:10;100591.59;;;6.97;52.07
48424;BME280;34232;42.502;26.014;2023-03-18T00:55:35;100597.16;;;6.91;52.55
48424;BME280;34232;42.502;26.014;2023-03-18T00:58:01;100593.03;;;6.87;52.56
48424;BME280;34232;42.502;26.014;2023-03-18T01:00:27;100590.53;;;7.00;52.15
48424;BME280;34232;42.502;26.014;2023-03-18T01:02:53;100593.06;;;7.01;52.23
48424;BME280;34232;42.502;26.014;2023-03-18T01:05:19;100589.06;;;6.96;52.49
48424;BME280;34232;42.502;26.014;2023-03-18T01:07:44;100596.44;;;7.03;52.13
48424;BME280;34232;42.502;26.014;2023-03-18T01:10:10;100586.69;;;6.91;52.34
48424;BME280;34232;42.502;26.014;2023-03-18T01:12:36;100577.75;;;6.95;52.25
48424;BME280;34232;42.502;26.014;2023-03-18T01:15:02;100584.47;;;6.99;52.38
48424;BME280;34232;42.502;26.014;2023-03-18T01:17:28;100576.25;;;7.06;51.66
48424;BME280;34232;42.502;26.014;2023-03-18T01:19:54;100580.22;;;7.13;51.59
48424;BME280;34232;42.502;26.014;2023-03-18T01:22:19;100582.06;;;7.11;50.73
48424;BME280;34232;42.502;26.014;2023-03-18T01:24:44;100578.31;;;7.15;50.80
48424;BME280;34232;42.502;26.014;2023-03-18T01:27:11;100577.59;;;7.13;50.46
48424;BME280;34232;42.502;26.014;2023-03-18T01:29:36;100581.31;;;7.09;51.04
48424;BME280;34232;42.502;26.014;2023-03-18T01:32:02;100576.66;;;7.14;51.09
48424;BME280;34232;42.502;26.014;2023-03-18T01:34:27;100576.28;;;7.20;50.73
48424;BME280;34232;42.502;26.014;2023-03-18T01:36:53;100577.19;;;7.19;51.08
48424;BME280;34232;42.502;26.014;2023-03-18T01:39:19;100573.28;;;7.12;50.18
48424;BME280;34232;42.502;26.014;2023-03-18T01:41:45;100577.75;;;6.95;50.36
48424;BME280;34232;42.502;26.014;2023-03-18T01:44:14;100574.38;;;6.93;50.36
48424;BME280;34232;42.502;26.014;2023-03-18T01:46:40;100575.22;;;6.94;50.44
48424;BME280;34232;42.502;26.014;2023-03-18T01:51:38;100579.06;;;7.02;50.22
48424;BME280;34232;42.502;26.014;2023-03-18T01:54:05;100572.13;;;7.01;50.04
48424;BME280;34232;42.502;26.014;2023-03-18T01:56:31;100579.59;;;6.93;49.20
48424;BME280;34232;42.502;26.014;2023-03-18T01:58:57;100582.06;;;6.96;49.36
48424;BME280;34232;42.502;26.014;2023-03-18T02:01:27;100584.94;;;7.06;48.81
48424;BME280;34232;42.502;26.014;2023-03-18T02:03:54;100578.69;;;6.94;48.31
48424;BME280;34232;42.502;26.014;2023-03-18T02:06:20;100585.22;;;7.01;48.60
48424;BME280;34232;42.502;26.014;2023-03-18T02:08:45;100581.59;;;7.04;48.42
48424;BME280;34232;42.502;26.014;2023-03-18T02:11:11;100586.53;;;6.94;48.23
48424;BME280;34232;42.502;26.014;2023-03-18T02:13:38;100587.53;;;6.92;49.15
48424;BME280;34232;42.502;26.014;2023-03-18T02:16:05;100591.31;;;6.72;49.09
48424;BME280;34232;42.502;26.014;2023-03-18T02:18:36;100598.19;;;6.59;50.47
48424;BME280;34232;42.502;26.014;2023-03-18T02:28:41;100588.13;;;6.67;49.86
48424;BME280;34232;42.502;26.014;2023-03-18T02:31:09;100590.03;;;6.79;49.33
48424;BME280;34232;42.502;26.014;2023-03-18T02:33:35;100583.47;;;6.72;49.81
48424;BME280;34232;42.502;26.014;2023-03-18T02:36:08;100579.72;;;6.62;50.80
48424;BME280;34232;42.502;26.014;2023-03-18T02:38:39;100589.00;;;6.52;51.88
48424;BME280;34232;42.502;26.014;2023-03-18T02:41:04;100599.81;;;6.46;51.66
48424;BME280;34232;42.502;26.014;2023-03-18T02:43:31;100589.09;;;6.35;52.24
48424;BME280;34232;42.502;26.014;2023-03-18T02:48:22;100595.78;;;6.24;53.38
48424;BME280;34232;42.502;26.014;2023-03-18T02:50:48;100596.63;;;6.09;53.46
48424;BME280;34232;42.502;26.014;2023-03-18T02:53:14;100607.59;;;6.16;54.05
48424;BME280;34232;42.502;26.014;2023-03-18T02:55:40;100610.38;;;6.28;53.54
48424;BME280;34232;42.502;26.014;2023-03-18T02:58:06;100604.06;;;6.32;53.18
48424;BME280;34232;42.502;26.014;2023-03-18T03:00:32;100605.56;;;6.37;53.91
48424;BME280;34232;42.502;26.014;2023-03-18T03:02:57;100602.53;;;6.44;53.15
48424;BME280;34232;42.502;26.014;2023-03-18T03:05:22;100606.75;;;6.47;52.79
48424;BME280;34232;42.502;26.014;2023-03-18T03:07:47;100605.22;;;6.43;52.87
48424;BME280;34232;42.502;26.014;2023-03-18T03:10:13;100604.88;;;6.49;52.82
48424;BME280;34232;42.502;26.014;2023-03-18T03:12:38;100599.66;;;6.49;52.28
48424;BME280;34232;42.502;26.014;2023-03-18T03:17:37;100600.97;;;6.56;52.23
48424;BME280;34232;42.502;26.014;2023-03-18T03:20:03;100600.63;;;6.62;51.72
48424;BME280;34232;42.502;26.014;2023-03-18T03:22:30;100598.09;;;6.60;52.27
48424;BME280;34232;42.502;26.014;2023-03-18T03:24:55;100596.34;;;6.61;52.71
48424;BME280;34232;42.502;26.014;2023-03-18T03:27:21;100594.91;;;6.55;52.32
48424;BME280;34232;42.502;26.014;2023-03-18T03:29:46;100599.28;;;6.55;52.30
48424;BME280;34232;42.502;26.014;2023-03-18T03:32:12;100591.69;;;6.50;52.86
48424;BME280;34232;42.502;26.014;2023-03-18T03:34:37;100596.63;;;6.41;53.03
48424;BME280;34232;42.502;26.014;2023-03-18T03:37:02;100592.56;;;6.19;53.98
48424;BME280;34232;42.502;26.014;2023-03-18T03:39:28;100592.25;;;6.25;53.64
48424;BME280;34232;42.502;26.014;2023-03-18T03:41:53;100593.19;;;6.09;54.06
48424;BME280;34232;42.502;26.014;2023-03-18T03:44:18;100598.41;;;6.24;53.94
48424;BME280;34232;42.502;26.014;2023-03-18T03:46:46;100590.41;;;6.27;53.62
48424;BME280;34232;42.502;26.014;2023-03-18T03:49:12;100589.09;;;6.35;53.62
48424;BME280;34232;42.502;26.014;2023-03-18T03:51:37;100590.88;;;6.34;53.76
48424;BME280;34232;42.502;26.014;2023-03-18T03:54:03;100588.38;;;6.32;53.78
48424;BME280;34232;42.502;26.014;2023-03-18T03:56:28;100591.81;;;6.17;54.26
48424;BME280;34232;42.502;26.014;2023-03-18T03:58:55;100599.31;;;6.23;53.43
48424;BME280;34232;42.502;26.014;2023-03-18T04:01:20;100598.81;;;6.01;53.83
48424;BME280;34232;42.502;26.014;2023-03-18T04:03:46;100595.47;;;5.99;53.87
48424;BME280;34232;42.502;26.014;2023-03-18T04:06:11;100600.34;;;5.89;53.91
48424;BME280;34232;42.502;26.014;2023-03-18T04:08:37;100593.97;;;5.78;54.73
48424;BME280;34232;42.502;26.014;2023-03-18T04:11:02;100594.91;;;5.77;55.13
48424;BME280;34232;42.502;26.014;2023-03-18T04:13:28;100603.81;;;5.73;54.23
48424;BME280;34232;42.502;26.014;2023-03-18T04:15:54;100596.50;;;5.63;54.94
48424;BME280;34232;42.502;26.014;2023-03-18T04:18:19;100596.38;;;5.49;56.05
48424;BME280;34232;42.502;26.014;2023-03-18T04:20:44;100594.34;;;5.54;55.96
48424;BME280;34232;42.502;26.014;2023-03-18T04:23:10;100597.56;;;5.59;56.12
48424;BME280;34232;42.502;26.014;2023-03-18T04:25:35;100597.25;;;5.66;55.80
48424;BME280;34232;42.502;26.014;2023-03-18T04:28:01;100596.50;;;5.63;56.00
48424;BME280;34232;42.502;26.014;2023-03-18T04:30:26;100581.75;;;5.62;56.36
48424;BME280;34232;42.502;26.014;2023-03-18T04:32:52;100584.19;;;5.66;55.93
48424;BME280;34232;42.502;26.014;2023-03-18T04:35:19;100590.50;;;5.61;55.39
48424;BME280;34232;42.502;26.014;2023-03-18T04:37:45;100597.88;;;5.53;55.41
48424;BME280;34232;42.502;26.014;2023-03-18T04:40:10;100593.53;;;5.37;55.62
48424;BME280;34232;42.502;26.014;2023-03-18T04:42:36;100601.50;;;5.18;55.95
48424;BME280;34232;42.502;26.014;2023-03-18T04:45:02;100605.63;;;5.05;56.19
48424;BME280;34232;42.502;26.014;2023-03-18T04:47:27;100609.94;;;4.88;56.92
48424;BME280;34232;42.502;26.014;2023-03-18T04:49:53;100614.41;;;4.69;57.04
48424;BME280;34232;42.502;26.014;2023-03-18T04:52:19;100609.56;;;4.62;57.46
48424;BME280;34232;42.502;26.014;2023-03-18T04:54:44;100609.75;;;4.57;57.86
48424;BME280;34232;42.502;26.014;2023-03-18T04:57:09;100613.59;;;4.50;58.30
48424;BME280;34232;42.502;26.014;2023-03-18T04:59:35;100613.59;;;4.50;58.75
48424;BME280;34232;42.502;26.014;2023-03-18T05:02:00;100613.59;;;4.50;58.45
48424;BME280;34232;42.502;26.014;2023-03-18T05:04:25;100617.00;;;4.52;58.58
48424;BME280;34232;42.502;26.014;2023-03-18T05:06:51;100616.06;;;4.53;58.99
48424;BME280;34232;42.502;26.014;2023-03-18T05:09:17;100632.16;;;4.61;59.45
48424;BME280;34232;42.502;26.014;2023-03-18T05:11:43;100632.03;;;4.64;59.42
48424;BME280;34232;42.502;26.014;2023-03-18T05:14:08;100631.31;;;4.61;59.04
48424;BME280;34232;42.502;26.014;2023-03-18T05:16:34;100629.72;;;4.75;58.22
48424;BME280;34232;42.502;26.014;2023-03-18T05:19:00;100644.25;;;4.81;57.97
48424;BME280;34232;42.502;26.014;2023-03-18T05:21:26;100639.25;;;4.76;58.43
48424;BME280;34232;42.502;26.014;2023-03-18T05:23:51;100634.66;;;4.81;59.19
48424;BME280;34232;42.502;26.014;2023-03-18T05:26:16;100630.50;;;4.95;57.54
48424;BME280;34232;42.502;26.014;2023-03-18T05:28:41;100647.56;;;5.02;57.71
48424;BME280;34232;42.502;26.014;2023-03-18T05:31:07;100640.66;;;5.01;58.22
48424;BME280;34232;42.502;26.014;2023-03-18T05:33:32;100642.94;;;5.07;58.62
48424;BME280;34232;42.502;26.014;2023-03-18T05:35:58;100637.13;;;5.19;58.34
48424;BME280;34232;42.502;26.014;2023-03-18T05:38:23;100635.25;;;5.04;59.07
48424;BME280;34232;42.502;26.014;2023-03-18T05:40:49;100637.41;;;5.13;59.30
48424;BME280;34232;42.502;26.014;2023-03-18T05:43:14;100640.47;;;5.38;58.62
48424;BME280;34232;42.502;26.014;2023-03-18T05:45:40;100634.66;;;5.66;58.36
48424;BME280;34232;42.502;26.014;2023-03-18T05:48:06;100638.69;;;5.89;57.37
48424;BME280;34232;42.502;26.014;2023-03-18T05:50:35;100641.84;;;6.11;57.36
48424;BME280;34232;42.502;26.014;2023-03-18T05:53:02;100641.75;;;6.28;56.80
48424;BME280;34232;42.502;26.014;2023-03-18T05:55:28;100648.22;;;6.53;55.50
48424;BME280;34232;42.502;26.014;2023-03-18T05:57:54;100655.41;;;6.65;55.36
48424;BME280;34232;42.502;26.014;2023-03-18T06:00:19;100651.31;;;6.75;55.71
48424;BME280;34232;42.502;26.014;2023-03-18T06:02:44;100651.72;;;6.83;55.34
48424;BME280;34232;42.502;26.014;2023-03-18T06:05:10;100662.00;;;6.86;54.73
48424;BME280;34232;42.502;26.014;2023-03-18T06:07:36;100655.41;;;6.95;54.38
48424;BME280;34232;42.502;26.014;2023-03-18T06:10:01;100656.25;;;6.95;53.49
48424;BME280;34232;42.502;26.014;2023-03-18T06:12:27;100653.06;;;6.90;54.98
48424;BME280;34232;42.502;26.014;2023-03-18T06:14:53;100651.03;;;6.95;54.73
48424;BME280;34232;42.502;26.014;2023-03-18T06:17:18;100654.19;;;7.00;53.61
48424;BME280;34232;42.502;26.014;2023-03-18T06:19:44;100653.06;;;6.90;54.10
48424;BME280;34232;42.502;26.014;2023-03-18T06:22:09;100657.38;;;6.91;54.23
48424;BME280;34232;42.502;26.014;2023-03-18T06:24:35;100654.91;;;6.88;54.61
48424;BME280;34232;42.502;26.014;2023-03-18T06:27:00;100658.63;;;6.84;55.92
48424;BME280;34232;42.502;26.014;2023-03-18T06:29:26;100654.16;;;6.86;57.85
48424;BME280;34232;42.502;26.014;2023-03-18T06:31:51;100656.50;;;6.91;56.82
48424;BME280;34232;42.502;26.014;2023-03-18T06:34:17;100649.94;;;6.84;56.90
48424;BME280;34232;42.502;26.014;2023-03-18T06:36:43;100658.19;;;6.62;57.43
48424;BME280;34232;42.502;26.014;2023-03-18T06:39:08;100653.13;;;6.59;58.65
48424;BME280;34232;42.502;26.014;2023-03-18T06:41:34;100654.44;;;6.66;58.88
48424;BME280;34232;42.502;26.014;2023-03-18T06:43:59;100658.00;;;6.65;59.64
48424;BME280;34232;42.502;26.014;2023-03-18T06:46:25;100652.19;;;6.60;59.31
48424;BME280;34232;42.502;26.014;2023-03-18T06:48:50;100659.66;;;6.66;59.24
48424;BME280;34232;42.502;26.014;2023-03-18T06:51:16;100652.41;;;6.71;59.31
48424;BME280;34232;42.502;26.014;2023-03-18T06:53:41;100660.84;;;6.76;59.01
48424;BME280;34232;42.502;26.014;2023-03-18T06:56:07;100657.31;;;6.77;58.55
48424;BME280;34232;42.502;26.014;2023-03-18T06:58:33;100651.53;;;6.86;58.53
48424;BME280;34232;42.502;26.014;2023-03-18T07:00:59;100654.91;;;6.88;58.42
48424;BME280;34232;42.502;26.014;2023-03-18T07:03:25;100647.28;;;6.99;57.49
48424;BME280;34232;42.502;26.014;2023-03-18T07:05:53;100643.56;;;7.03;57.37
48424;BME280;34232;42.502;26.014;2023-03-18T07:08:18;100649.97;;;7.14;56.86
48424;BME280;34232;42.502;26.014;2023-03-18T07:10:44;100653.13;;;7.19;57.33
48424;BME280;34232;42.502;26.014;2023-03-18T07:13:09;100646.44;;;7.29;56.74
48424;BME280;34232;42.502;26.014;2023-03-18T07:15:35;100654.84;;;7.48;56.11
48424;BME280;34232;42.502;26.014;2023-03-18T07:18:02;100657.13;;;7.68;56.18
48424;BME280;34232;42.502;26.014;2023-03-18T07:20:29;100651.88;;;7.97;55.37
48424;BME280;34232;42.502;26.014;2023-03-18T07:22:54;100659.75;;;8.11;54.57
48424;BME280;34232;42.502;26.014;2023-03-18T07:25:19;100661.59;;;8.37;53.74
48424;BME280;34232;42.502;26.014;2023-03-18T07:27:45;100646.38;;;8.57;52.04
48424;BME280;34232;42.502;26.014;2023-03-18T07:30:11;100651.13;;;8.77;50.46
48424;BME280;34232;42.502;26.014;2023-03-18T07:32:36;100657.41;;;9.01;50.85
48424;BME280;34232;42.502;26.014;2023-03-18T07:35:03;100658.72;;;9.21;49.15
48424;BME280;34232;42.502;26.014;2023-03-18T07:37:29;100655.06;;;9.36;48.17
48424;BME280;34232;42.502;26.014;2023-03-18T07:39:54;100654.97;;;9.38;46.73
48424;BME280;34232;42.502;26.014;2023-03-18T07:42:20;100658.09;;;9.43;47.25
48424;BME280;34232;42.502;26.014;2023-03-18T07:44:45;100649.06;;;9.47;47.08
48424;BME280;34232;42.502;26.014;2023-03-18T07:47:11;100651.28;;;9.53;47.23
48424;BME280;34232;42.502;26.014;2023-03-18T07:49:38;100660.66;;;9.57;47.38
48424;BME280;34232;42.502;26.014;2023-03-18T07:52:03;100652.75;;;9.82;47.84
48424;BME280;34232;42.502;26.014;2023-03-18T07:54:29;100654.31;;;9.98;42.41
48424;BME280;34232;42.502;26.014;2023-03-18T07:56:54;100654.31;;;9.85;45.80
48424;BME280;34232;42.502;26.014;2023-03-18T07:59:19;100661.03;;;10.02;46.07
48424;BME280;34232;42.502;26.014;2023-03-18T08:01:45;100652.63;;;9.97;42.66
48424;BME280;34232;42.502;26.014;2023-03-18T08:04:10;100650.69;;;10.11;41.38
48424;BME280;34232;42.502;26.014;2023-03-18T08:06:35;100647.56;;;10.19;41.34
48424;BME280;34232;42.502;26.014;2023-03-18T08:09:02;100654.38;;;10.09;41.41
48424;BME280;34232;42.502;26.014;2023-03-18T08:11:27;100658.47;;;10.13;40.16
48424;BME280;34232;42.502;26.014;2023-03-18T08:13:53;100656.19;;;10.21;38.67
48424;BME280;34232;42.502;26.014;2023-03-18T08:16:18;100643.53;;;10.26;35.33
48424;BME280;34232;42.502;26.014;2023-03-18T08:18:43;100658.88;;;10.32;37.15
48424;BME280;34232;42.502;26.014;2023-03-18T08:21:09;100651.06;;;10.43;36.02
48424;BME280;34232;42.502;26.014;2023-03-18T08:23:34;100647.47;;;10.44;35.67
48424;BME280;34232;42.502;26.014;2023-03-18T08:26:00;100646.41;;;10.47;35.50
48424;BME280;34232;42.502;26.014;2023-03-18T08:28:25;100653.69;;;10.43;33.37
48424;BME280;34232;42.502;26.014;2023-03-18T08:30:55;100650.22;;;10.43;33.56
48424;BME280;34232;42.502;26.014;2023-03-18T08:33:22;100645.78;;;10.43;33.70
48424;BME280;34232;42.502;26.014;2023-03-18T08:35:48;100651.47;;;10.50;33.79
48424;BME280;34232;42.502;26.014;2023-03-18T08:38:13;100655.16;;;10.47;33.27
48424;BME280;34232;42.502;26.014;2023-03-18T08:40:39;100651.91;;;10.44;33.38
48424;BME280;34232;42.502;26.014;2023-03-18T08:43:05;100647.88;;;10.51;33.07
48424;BME280;34232;42.502;26.014;2023-03-18T08:45:31;100645.16;;;10.52;34.30
48424;BME280;34232;42.502;26.014;2023-03-18T08:47:56;100648.88;;;10.37;33.05
48424;BME280;34232;42.502;26.014;2023-03-18T08:50:22;100649.31;;;10.31;32.79
48424;BME280;34232;42.502;26.014;2023-03-18T08:52:52;100652.56;;;10.35;33.87
48424;BME280;34232;42.502;26.014;2023-03-18T08:55:17;100655.53;;;10.30;33.67
48424;BME280;34232;42.502;26.014;2023-03-18T08:57:45;100648.38;;;10.32;33.79
48424;BME280;34232;42.502;26.014;2023-03-18T09:00:11;100646.47;;;10.34;34.06
48424;BME280;34232;42.502;26.014;2023-03-18T09:02:37;100650.56;;;10.38;33.76
48424;BME280;34232;42.502;26.014;2023-03-18T09:05:03;100651.63;;;10.36;33.29
48424;BME280;34232;42.502;26.014;2023-03-18T09:07:29;100651.06;;;10.43;34.42
48424;BME280;34232;42.502;26.014;2023-03-18T09:09:54;100649.78;;;10.49;34.16
48424;BME280;34232;42.502;26.014;2023-03-18T09:12:20;100656.09;;;10.46;34.38
48424;BME280;34232;42.502;26.014;2023-03-18T09:14:46;100656.88;;;10.60;34.42
48424;BME280;34232;42.502;26.014;2023-03-18T09:17:11;100646.88;;;10.65;33.71
48424;BME280;34232;42.502;26.014;2023-03-18T09:19:37;100643.81;;;10.71;32.91
48424;BME280;34232;42.502;26.014;2023-03-18T09:22:02;100647.75;;;10.76;34.62
48424;BME280;34232;42.502;26.014;2023-03-18T09:24:28;100647.94;;;10.86;33.58
48424;BME280;34232;42.502;26.014;2023-03-18T09:26:53;100648.94;;;10.96;33.84
48424;BME280;34232;42.502;26.014;2023-03-18T09:29:18;100651.38;;;11.10;33.56
48424;BME280;34232;42.502;26.014;2023-03-18T09:31:43;100648.75;;;11.21;34.81
48424;BME280;34232;42.502;26.014;2023-03-18T09:34:09;100642.81;;;11.31;32.35
48424;BME280;34232;42.502;26.014;2023-03-18T09:36:37;100645.94;;;11.36;32.68
48424;BME280;34232;42.502;26.014;2023-03-18T09:39:02;100647.34;;;11.40;31.62
48424;BME280;34232;42.502;26.014;2023-03-18T09:46:34;100647.13;;;11.54;32.01
48424;BME280;34232;42.502;26.014;2023-03-18T09:49:11;100643.19;;;11.60;31.53
48424;BME280;34232;42.502;26.014;2023-03-18T09:57:03;100628.50;;;11.79;31.05
48424;BME280;34232;42.502;26.014;2023-03-18T09:59:35;100630.19;;;11.91;31.58
48424;BME280;34232;42.502;26.014;2023-03-18T10:02:02;100636.06;;;11.95;31.45
48424;BME280;34232;42.502;26.014;2023-03-18T10:04:51;100627.41;;;12.04;30.94
48424;BME280;34232;42.502;26.014;2023-03-18T10:07:16;100628.94;;;12.18;30.96
48424;BME280;34232;42.502;26.014;2023-03-18T10:09:48;100632.06;;;12.23;30.19
48424;BME280;34232;42.502;26.014;2023-03-18T10:15:00;100617.41;;;12.30;31.25
48424;BME280;34232;42.502;26.014;2023-03-18T10:17:32;100618.09;;;12.43;31.06
48424;BME280;34232;42.502;26.014;2023-03-18T10:20:00;100624.41;;;12.52;30.95
48424;BME280;34232;42.502;26.014;2023-03-18T10:22:49;100619.38;;;12.60;29.74
48424;BME280;34232;42.502;26.014;2023-03-18T10:25:36;100624.47;;;12.73;30.68
48424;BME280;34232;42.502;26.014;2023-03-18T10:37:56;100602.38;;;13.26;31.38
48424;BME280;34232;42.502;26.014;2023-03-18T10:40:21;100601.81;;;13.53;30.51
48424;BME280;34232;42.502;26.014;2023-03-18T10:42:48;100587.88;;;13.82;29.38
48424;BME280;34232;42.502;26.014;2023-03-18T10:47:43;100580.84;;;14.61;29.04
48424;BME280;34232;42.502;26.014;2023-03-18T10:50:13;100567.28;;;14.83;28.82
48424;BME280;34232;42.502;26.014;2023-03-18T10:52:53;100572.66;;;15.11;28.62
48424;BME280;34232;42.502;26.014;2023-03-18T10:55:21;100572.66;;;15.20;27.73
48424;BME280;34232;42.502;26.014;2023-03-18T10:57:56;100558.94;;;15.34;27.98
48424;BME280;34232;42.502;26.014;2023-03-18T11:00:29;100568.41;;;15.56;27.05
48424;BME280;34232;42.502;26.014;2023-03-18T11:02:56;100556.34;;;15.62;26.64
48424;BME280;34232;42.502;26.014;2023-03-18T11:05:26;100556.56;;;15.78;26.00
48424;BME280;34232;42.502;26.014;2023-03-18T11:10:23;100553.28;;;16.12;26.20
48424;BME280;34232;42.502;26.014;2023-03-18T11:12:49;100556.03;;;16.20;26.55
48424;BME280;34232;42.502;26.014;2023-03-18T11:15:18;100546.59;;;16.07;27.28
48424;BME280;34232;42.502;26.014;2023-03-18T11:17:45;100547.88;;;15.86;28.10
48424;BME280;34232;42.502;26.014;2023-03-18T11:22:43;100539.41;;;16.18;26.48
48424;BME280;34232;42.502;26.014;2023-03-18T11:27:39;100530.53;;;16.27;26.22
48424;BME280;34232;42.502;26.014;2023-03-18T11:30:16;100534.13;;;16.35;25.30
48424;BME280;34232;42.502;26.014;2023-03-18T11:35:53;100522.84;;;16.41;25.45
48424;BME280;34232;42.502;26.014;2023-03-18T11:38:20;100521.88;;;16.60;25.07
48424;BME280;34232;42.502;26.014;2023-03-18T11:40:51;100513.16;;;16.50;25.03
48424;BME280;34232;42.502;26.014;2023-03-18T11:43:19;100506.53;;;16.54;24.92
48424;BME280;34232;42.502;26.014;2023-03-18T11:45:49;100511.72;;;16.38;25.29
48424;BME280;34232;42.502;26.014;2023-03-18T11:48:35;100502.66;;;16.49;25.00
48424;BME280;34232;42.502;26.014;2023-03-18T11:58:58;100501.09;;;16.02;26.22
48424;BME280;34232;42.502;26.014;2023-03-18T12:01:30;100494.25;;;16.00;25.54
48424;BME280;34232;42.502;26.014;2023-03-18T12:04:18;100485.88;;;15.95;26.60
48424;BME280;34232;42.502;26.014;2023-03-18T12:09:29;100486.34;;;15.90;26.81
48424;BME280;34232;42.502;26.014;2023-03-18T12:14:54;100492.94;;;15.86;26.05
48424;BME280;34232;42.502;26.014;2023-03-18T12:23:07;100483.53;;;15.74;26.54
48424;BME280;34232;42.502;26.014;2023-03-18T12:30:35;100482.66;;;15.56;26.78
48424;BME280;34232;42.502;26.014;2023-03-18T12:35:53;100483.16;;;15.59;27.72
48424;BME280;34232;42.502;26.014;2023-03-18T12:41:13;100482.09;;;15.43;27.37
48424;BME280;34232;42.502;26.014;2023-03-18T12:44:02;100479.63;;;15.41;27.79
48424;BME280;34232;42.502;26.014;2023-03-18T12:49:24;100468.44;;;15.37;27.09
48424;BME280;34232;42.502;26.014;2023-03-18T12:51:55;100468.75;;;15.34;27.93
48424;BME280;34232;42.502;26.014;2023-03-18T12:54:26;100474.34;;;15.31;28.38
48424;BME280;34232;42.502;26.014;2023-03-18T12:56:55;100471.91;;;15.11;28.21
48424;BME280;34232;42.502;26.014;2023-03-18T12:59:28;100472.16;;;15.17;27.86
48424;BME280;34232;42.502;26.014;2023-03-18T13:04:24;100465.97;;;15.26;26.97
48424;BME280;34232;42.502;26.014;2023-03-18T13:07:10;100474.34;;;15.31;27.92
48424;BME280;34232;42.502;26.014;2023-03-18T13:09:50;100475.31;;;15.30;28.42
48424;BME280;34232;42.502;26.014;2023-03-18T13:14:50;100461.84;;;15.14;28.71
48424;BME280;34232;42.502;26.014;2023-03-18T13:17:23;100468.53;;;15.18;29.02
48424;BME280;34232;42.502;26.014;2023-03-18T13:19:55;100459.94;;;15.07;28.50
48424;BME280;34232;42.502;26.014;2023-03-18T13:24:54;100464.97;;;15.00;28.90
48424;BME280;34232;42.502;26.014;2023-03-18T13:37:59;100449.06;;;15.00;29.98
48424;BME280;34232;42.502;26.014;2023-03-18T13:43:10;100445.44;;;15.01;30.63
48424;BME280;34232;42.502;26.014;2023-03-18T13:45:38;100447.66;;;14.96;30.34
48424;BME280;34232;42.502;26.014;2023-03-18T13:52:58;100447.66;;;15.05;29.99
48424;BME280;34232;42.502;26.014;2023-03-18T13:55:30;100444.63;;;14.91;30.27
48424;BME280;34232;42.502;26.014;2023-03-18T14:00:28;100450.09;;;14.80;30.75
48424;BME280;34232;42.502;26.014;2023-03-18T14:05:44;100462.72;;;14.58;31.51
48424;BME280;34232;42.502;26.014;2023-03-18T14:08:31;100456.28;;;14.61;31.51
48424;BME280;34232;42.502;26.014;2023-03-18T14:16:21;100464.91;;;14.34;31.54
48424;BME280;34232;42.502;26.014;2023-03-18T14:19:00;100456.84;;;14.07;31.49
48424;BME280;34232;42.502;26.014;2023-03-18T14:21:28;100459.34;;;13.98;31.93
48424;BME280;34232;42.502;26.014;2023-03-18T14:29:26;100459.19;;;13.90;32.06
48424;BME280;34232;42.502;26.014;2023-03-18T14:31:58;100461.28;;;13.87;31.79
48424;BME280;34232;42.502;26.014;2023-03-18T14:34:25;100453.59;;;13.84;32.28
48424;BME280;34232;42.502;26.014;2023-03-18T14:39:30;100456.00;;;13.77;32.88
48424;BME280;34232;42.502;26.014;2023-03-18T14:41:57;100453.34;;;13.87;32.65
48424;BME280;34232;42.502;26.014;2023-03-18T14:44:34;100448.03;;;13.87;32.76
48424;BME280;34232;42.502;26.014;2023-03-18T14:47:05;100454.19;;;13.87;32.16
48424;BME280;34232;42.502;26.014;2023-03-18T14:49:42;100451.66;;;13.76;32.17
48424;BME280;34232;42.502;26.014;2023-03-18T14:55:01;100457.22;;;13.73;31.43
48424;BME280;34232;42.502;26.014;2023-03-18T14:57:29;100461.94;;;13.60;32.32